Crystal Symphony — C6MY5 — position and weather

sailwx.info

Track history (hours):
 
Tides and Currents Weather Stations Pressure Air Temp Water Temp Dewpoint Dewpoint Depression Visibility Wind Speed Wind Dir Waves Ship Positions

Crystal Symphony

Operator: Crystal Cruises

Last reported at 2014-Jul-30 00:33 UTC. Time now 2014-Jul-30 01:07 UTC.
Position N 54°38' E 012°20'.

Length 238 m; draft 7.7 m.

Type: Ship. MMSI: 309168000.

Date/timePositionNaut miles runAvg speedWind from/ knotsBaromVisibWave heightAir tempDewpointWater temp
2014-Jul-30 00:33N 54°38' E 012°20'10 9.7
2014-Jul-29 23:33N 54°44' E 012°34'1211.9
2014-Jul-29 22:33N 54°51' E 012°51'1010.1
2014-Jul-29 21:33N 54°59' E 013°02'1010.0
2014-Jul-29 20:33N 55°07' E 012°53'10 9.8
2014-Jul-29 19:33N 55°13' E 012°39'10 9.8
2014-Jul-29 18:33N 55°22' E 012°39'1010.1
2014-Jul-29 17:33N 55°32' E 012°42'10 9.5
2014-Jul-29 16:33N 55°42' E 012°41'3 2.7
2014-Jul-29 15:33N 55°42' E 012°36'0 0.0
2014-Jul-29 14:33N 55°42' E 012°36'0 0.0
2014-Jul-29 13:33N 55°42' E 012°36'0 0.0
2014-Jul-29 12:33N 55°42' E 012°36'0 0.0
2014-Jul-29 11:33N 55°42' E 012°36'0 0.0
2014-Jul-29 10:33N 55°42' E 012°36'0 0.0
2014-Jul-29 09:33N 55°42' E 012°36'0 0.0
2014-Jul-29 08:33N 55°42' E 012°36'0 0.0
2014-Jul-29 07:33N 55°42' E 012°36'0 0.0
2014-Jul-29 06:33N 55°42' E 012°36'0 0.0
2014-Jul-29 05:33N 55°42' E 012°36'0 0.0
2014-Jul-29 04:33N 55°42' E 012°36'0 0.0
2014-Jul-29 03:33N 55°42' E 012°36'0 0.0
2014-Jul-29 02:33N 55°42' E 012°36'0 0.0
2014-Jul-29 01:33N 55°42' E 012°36'0 0.0
2014-Jul-29 00:33N 55°42' E 012°36'0 0.0
2014-Jul-28 23:33N 55°42' E 012°36'0 0.0
2014-Jul-28 22:33N 55°42' E 012°36'0 0.0
2014-Jul-28 21:33N 55°42' E 012°36'0 0.0
2014-Jul-28 20:34N 55°42' E 012°36'0 0.0
2014-Jul-28 19:34N 55°42' E 012°36'0 0.0
2014-Jul-28 18:33N 55°42' E 012°36'0 0.0
2014-Jul-28 17:33N 55°42' E 012°36'0 0.0
2014-Jul-28 16:33N 55°42' E 012°36'0 0.0
2014-Jul-28 15:33N 55°42' E 012°36'0 0.0
2014-Jul-28 14:34N 55°42' E 012°36'0 0.0
2014-Jul-28 13:33N 55°42' E 012°36'0 0.0
2014-Jul-28 12:33N 55°42' E 012°36'0 0.0
2014-Jul-28 11:33N 55°42' E 012°36'0 0.0
2014-Jul-28 10:34N 55°42' E 012°36'0 0.0
2014-Jul-28 09:33N 55°42' E 012°36'0 0.0
2014-Jul-28 08:33N 55°42' E 012°36'0 0.0
2014-Jul-28 07:33N 55°42' E 012°36'0 0.0
2014-Jul-28 06:33N 55°42' E 012°36'0 0.0
2014-Jul-28 05:34N 55°42' E 012°36'0 0.0
2014-Jul-28 04:33N 55°42' E 012°36'0 0.1
2014-Jul-28 03:34N 55°42' E 012°36'7 6.8
2014-Jul-28 02:34N 55°48' E 012°42'1110.8
2014-Jul-28 01:34N 55°59' E 012°38'9 9.0
2014-Jul-28 00:34N 56°07' E 012°31'1212.3
2014-Jul-27 23:34N 56°14' E 012°13'1212.3
2014-Jul-27 22:33N 56°24' E 012°00'1313.2
2014-Jul-27 21:33N 56°37' E 011°55'1313.3
2014-Jul-27 20:33N 56°50' E 011°49'1313.5
2014-Jul-27 19:33N 57°03' E 011°40'1413.6
2014-Jul-27 18:33N 57°15' E 011°33'1313.3
2014-Jul-27 17:33N 57°28' E 011°24'1413.6
2014-Jul-27 16:34N 57°37' E 011°06'1313.4
2014-Jul-27 15:34N 57°42' E 010°42'3 2.9
2014-Jul-27 14:34N 57°42' E 010°37'0 0.1
2014-Jul-27 13:33N 57°42' E 010°37'0 0.0
2014-Jul-27 12:33N 57°42' E 010°37'0 0.0
2014-Jul-27 11:34N 57°42' E 010°37'0 0.0
2014-Jul-27 10:34N 57°42' E 010°37'0 0.0
2014-Jul-27 09:33N 57°42' E 010°37'0 0.0
2014-Jul-27 08:33N 57°42' E 010°37'0 0.0
2014-Jul-27 07:34N 57°42' E 010°37'0 0.0
2014-Jul-27 06:34N 57°42' E 010°37'0 0.0
2014-Jul-27 05:33N 57°42' E 010°37'6 5.9
2014-Jul-27 04:33N 57°45' E 010°47'7 7.4
2014-Jul-27 03:34N 57°52' E 010°45'9 9.2
2014-Jul-27 02:33N 58°01' E 010°43'9 9.2
2014-Jul-27 01:33N 58°10' E 010°41'2010.1
2014-Jul-26 23:34N 58°30' E 010°37'9 9.2
2014-Jul-26 22:33N 58°39' E 010°35'9 9.4
2014-Jul-26 21:33N 58°49' E 010°34'9 9.4
2014-Jul-26 20:34N 58°58' E 010°35'9 9.2
2014-Jul-26 19:33N 59°07' E 010°36'1616.1
2014-Jul-26 18:33N 59°23' E 010°34'1515.4
2014-Jul-26 17:34N 59°39' E 010°37'1313.0
2014-Jul-26 16:32N 59°52' E 010°38'4 4.0
2014-Jul-26 15:33N 59°54' E 010°44'0 0.0
2014-Jul-26 14:33N 59°54' E 010°44'0 0.0
2014-Jul-26 13:33N 59°54' E 010°44'0 0.0
2014-Jul-26 12:33N 59°54' E 010°44'0 0.0
2014-Jul-26 11:33N 59°54' E 010°44'0 0.0
2014-Jul-26 10:33N 59°54' E 010°44'0 0.0
2014-Jul-26 09:33N 59°54' E 010°44'0 0.0
2014-Jul-26 08:33N 59°54' E 010°44'0 0.0
2014-Jul-26 07:33N 59°54' E 010°44'0 0.0
2014-Jul-26 06:33N 59°54' E 010°44'0 0.0
2014-Jul-26 05:33N 59°54' E 010°44'0 0.2
2014-Jul-26 04:33N 59°54' E 010°44'1211.7
2014-Jul-26 03:33N 59°43' E 010°35'1514.9
2014-Jul-26 02:33N 59°29' E 010°35'1717.1
2014-Jul-26 01:33N 59°12' E 010°39'1211.9
2014-Jul-26 00:33N 59°00' E 010°33'1313.2
2014-Jul-25 23:33N 58°49' E 010°18'5313.1
2014-Jul-25 19:32N 58°13' E 009°06'1312.9
2014-Jul-25 18:33N 58°08' E 008°44'1312.6
2014-Jul-25 17:33N 58°03' E 008°22'62 3.9
2014-Jul-25 01:33N 58°01' E 006°25'1717.1
2014-Jul-25 00:33N 58°13' E 006°00'1717.3
2014-Jul-24 23:33N 58°24' E 005°36'1717.2
2014-Jul-24 22:33N 58°39' E 005°18'1817.7
2014-Jul-24 21:33N 58°54' E 005°01'2017.3
2014-Jul-24 20:25N 59°11' E 004°42'1516.7
2014-Jul-24 19:31N 59°26' E 004°40'5115.6
2014-Jul-24 16:15N 60°15' E 005°09'811.8
2014-Jul-24 15:33N 60°23' E 005°12'4 3.6
2014-Jul-24 14:34N 60°24' E 005°19'0 0.0
2014-Jul-24 13:34N 60°24' E 005°19'0 0.0
2014-Jul-24 12:34N 60°24' E 005°19'0 0.0
2014-Jul-24 11:34N 60°24' E 005°19'0 0.0
2014-Jul-24 10:34N 60°24' E 005°19'0 0.0
2014-Jul-24 09:34N 60°24' E 005°19'0 0.0
2014-Jul-24 08:34N 60°24' E 005°19'0 0.0
2014-Jul-24 07:33N 60°24' E 005°19'0 0.0
2014-Jul-24 06:34N 60°24' E 005°19'0 0.0
2014-Jul-24 05:33N 60°24' E 005°19'6 5.7
2014-Jul-24 04:33N 60°24' E 005°07'218 8.9
2014-Jul-23 04:05N 63°54' E 007°17'17618.0
2014-Jul-22 18:20N 66°23' E 010°58'2317.9
2014-Jul-22 17:04N 66°42' E 011°28'918.0
2014-Jul-22 16:33N 66°50' E 011°40'1817.8
2014-Jul-22 15:33N 67°05' E 012°04'2118.1
2014-Jul-22 14:25N 67°22' E 012°32'2118.3
2014-Jul-22 13:17N 67°40' E 013°00'1317.6
2014-Jul-22 12:33N 67°51' E 013°17'261 6.9
2014-Jul-20 22:33N 70°31' E 022°57'1817.6
2014-Jul-20 21:33N 70°44' E 023°32'  
Track history (hours):
 
Tides and Currents Weather Stations Pressure Air Temp Water Temp Dewpoint Dewpoint Depression Visibility Wind Speed Wind Dir Waves Ship Positions

Crystal Symphony

Operator: Crystal Cruises

Last reported at 2014-Jul-30 00:33 UTC. Time now 2014-Jul-30 01:07 UTC.
Position N 54°38' E 012°20'.

Length 238 m; draft 7.7 m.

Type: Ship. MMSI: 309168000.

Date/timePositionNaut miles runAvg speedWind from/ knotsBaromVisibWave heightAir tempDewpointWater temp
2014-Jul-30 00:33N 54°38' E 012°20'10 9.7
2014-Jul-29 23:33N 54°44' E 012°34'1211.9
2014-Jul-29 22:33N 54°51' E 012°51'1010.1
2014-Jul-29 21:33N 54°59' E 013°02'1010.0
2014-Jul-29 20:33N 55°07' E 012°53'10 9.8
2014-Jul-29 19:33N 55°13' E 012°39'10 9.8
2014-Jul-29 18:33N 55°22' E 012°39'1010.1
2014-Jul-29 17:33N 55°32' E 012°42'10 9.5
2014-Jul-29 16:33N 55°42' E 012°41'3 2.7
2014-Jul-29 15:33N 55°42' E 012°36'0 0.0
2014-Jul-29 14:33N 55°42' E 012°36'0 0.0
2014-Jul-29 13:33N 55°42' E 012°36'0 0.0
2014-Jul-29 12:33N 55°42' E 012°36'0 0.0
2014-Jul-29 11:33N 55°42' E 012°36'0 0.0
2014-Jul-29 10:33N 55°42' E 012°36'0 0.0
2014-Jul-29 09:33N 55°42' E 012°36'0 0.0
2014-Jul-29 08:33N 55°42' E 012°36'0 0.0
2014-Jul-29 07:33N 55°42' E 012°36'0 0.0
2014-Jul-29 06:33N 55°42' E 012°36'0 0.0
2014-Jul-29 05:33N 55°42' E 012°36'0 0.0
2014-Jul-29 04:33N 55°42' E 012°36'0 0.0
2014-Jul-29 03:33N 55°42' E 012°36'0 0.0
2014-Jul-29 02:33N 55°42' E 012°36'0 0.0
2014-Jul-29 01:33N 55°42' E 012°36'0 0.0
2014-Jul-29 00:33N 55°42' E 012°36'0 0.0
2014-Jul-28 23:33N 55°42' E 012°36'0 0.0
2014-Jul-28 22:33N 55°42' E 012°36'0 0.0
2014-Jul-28 21:33N 55°42' E 012°36'0 0.0
2014-Jul-28 20:34N 55°42' E 012°36'0 0.0
2014-Jul-28 19:34N 55°42' E 012°36'0 0.0
2014-Jul-28 18:33N 55°42' E 012°36'0 0.0
2014-Jul-28 17:33N 55°42' E 012°36'0 0.0
2014-Jul-28 16:33N 55°42' E 012°36'0 0.0
2014-Jul-28 15:33N 55°42' E 012°36'0 0.0
2014-Jul-28 14:34N 55°42' E 012°36'0 0.0
2014-Jul-28 13:33N 55°42' E 012°36'0 0.0
2014-Jul-28 12:33N 55°42' E 012°36'0 0.0
2014-Jul-28 11:33N 55°42' E 012°36'0 0.0
2014-Jul-28 10:34N 55°42' E 012°36'0 0.0
2014-Jul-28 09:33N 55°42' E 012°36'0 0.0
2014-Jul-28 08:33N 55°42' E 012°36'0 0.0
2014-Jul-28 07:33N 55°42' E 012°36'0 0.0
2014-Jul-28 06:33N 55°42' E 012°36'0 0.0
2014-Jul-28 05:34N 55°42' E 012°36'0 0.0
2014-Jul-28 04:33N 55°42' E 012°36'0 0.1
2014-Jul-28 03:34N 55°42' E 012°36'7 6.8
2014-Jul-28 02:34N 55°48' E 012°42'1110.8
2014-Jul-28 01:34N 55°59' E 012°38'9 9.0
2014-Jul-28 00:34N 56°07' E 012°31'1212.3
2014-Jul-27 23:34N 56°14' E 012°13'1212.3
2014-Jul-27 22:33N 56°24' E 012°00'1313.2
2014-Jul-27 21:33N 56°37' E 011°55'1313.3
2014-Jul-27 20:33N 56°50' E 011°49'1313.5
2014-Jul-27 19:33N 57°03' E 011°40'1413.6
2014-Jul-27 18:33N 57°15' E 011°33'1313.3
2014-Jul-27 17:33N 57°28' E 011°24'1413.6
2014-Jul-27 16:34N 57°37' E 011°06'1313.4
2014-Jul-27 15:34N 57°42' E 010°42'3 2.9
2014-Jul-27 14:34N 57°42' E 010°37'0 0.1
2014-Jul-27 13:33N 57°42' E 010°37'0 0.0
2014-Jul-27 12:33N 57°42' E 010°37'0 0.0
2014-Jul-27 11:34N 57°42' E 010°37'0 0.0
2014-Jul-27 10:34N 57°42' E 010°37'0 0.0
2014-Jul-27 09:33N 57°42' E 010°37'0 0.0
2014-Jul-27 08:33N 57°42' E 010°37'0 0.0
2014-Jul-27 07:34N 57°42' E 010°37'0 0.0
2014-Jul-27 06:34N 57°42' E 010°37'0 0.0
2014-Jul-27 05:33N 57°42' E 010°37'6 5.9
2014-Jul-27 04:33N 57°45' E 010°47'7 7.4
2014-Jul-27 03:34N 57°52' E 010°45'9 9.2
2014-Jul-27 02:33N 58°01' E 010°43'9 9.2
2014-Jul-27 01:33N 58°10' E 010°41'2010.1
2014-Jul-26 23:34N 58°30' E 010°37'9 9.2
2014-Jul-26 22:33N 58°39' E 010°35'9 9.4
2014-Jul-26 21:33N 58°49' E 010°34'9 9.4
2014-Jul-26 20:34N 58°58' E 010°35'9 9.2
2014-Jul-26 19:33N 59°07' E 010°36'1616.1
2014-Jul-26 18:33N 59°23' E 010°34'1515.4
2014-Jul-26 17:34N 59°39' E 010°37'1313.0
2014-Jul-26 16:32N 59°52' E 010°38'4 4.0
2014-Jul-26 15:33N 59°54' E 010°44'0 0.0
2014-Jul-26 14:33N 59°54' E 010°44'0 0.0
2014-Jul-26 13:33N 59°54' E 010°44'0 0.0
2014-Jul-26 12:33N 59°54' E 010°44'0 0.0
2014-Jul-26 11:33N 59°54' E 010°44'0 0.0
2014-Jul-26 10:33N 59°54' E 010°44'0 0.0
2014-Jul-26 09:33N 59°54' E 010°44'0 0.0
2014-Jul-26 08:33N 59°54' E 010°44'0 0.0
2014-Jul-26 07:33N 59°54' E 010°44'0 0.0
2014-Jul-26 06:33N 59°54' E 010°44'0 0.0
2014-Jul-26 05:33N 59°54' E 010°44'0 0.2
2014-Jul-26 04:33N 59°54' E 010°44'1211.7
2014-Jul-26 03:33N 59°43' E 010°35'1514.9
2014-Jul-26 02:33N 59°29' E 010°35'1717.1
2014-Jul-26 01:33N 59°12' E 010°39'1211.9
2014-Jul-26 00:33N 59°00' E 010°33'1313.2
2014-Jul-25 23:33N 58°49' E 010°18'5313.1
2014-Jul-25 19:32N 58°13' E 009°06'1312.9
2014-Jul-25 18:33N 58°08' E 008°44'1312.6
2014-Jul-25 17:33N 58°03' E 008°22'62 3.9
2014-Jul-25 01:33N 58°01' E 006°25'1717.1
2014-Jul-25 00:33N 58°13' E 006°00'1717.3
2014-Jul-24 23:33N 58°24' E 005°36'1717.2
2014-Jul-24 22:33N 58°39' E 005°18'1817.7
2014-Jul-24 21:33N 58°54' E 005°01'2017.3
2014-Jul-24 20:25N 59°11' E 004°42'1516.7
2014-Jul-24 19:31N 59°26' E 004°40'5115.6
2014-Jul-24 16:15N 60°15' E 005°09'811.8
2014-Jul-24 15:33N 60°23' E 005°12'4 3.6
2014-Jul-24 14:34N 60°24' E 005°19'0 0.0
2014-Jul-24 13:34N 60°24' E 005°19'0 0.0
2014-Jul-24 12:34N 60°24' E 005°19'0 0.0
2014-Jul-24 11:34N 60°24' E 005°19'0 0.0
2014-Jul-24 10:34N 60°24' E 005°19'0 0.0
2014-Jul-24 09:34N 60°24' E 005°19'0 0.0
2014-Jul-24 08:34N 60°24' E 005°19'0 0.0
2014-Jul-24 07:33N 60°24' E 005°19'0 0.0
2014-Jul-24 06:34N 60°24' E 005°19'0 0.0
2014-Jul-24 05:33N 60°24' E 005°19'6 5.7
2014-Jul-24 04:33N 60°24' E 005°07'218 8.9
2014-Jul-23 04:05N 63°54' E 007°17'17618.0
2014-Jul-22 18:20N 66°23' E 010°58'2317.9
2014-Jul-22 17:04N 66°42' E 011°28'918.0
2014-Jul-22 16:33N 66°50' E 011°40'1817.8
2014-Jul-22 15:33N 67°05' E 012°04'2118.1
2014-Jul-22 14:25N 67°22' E 012°32'2118.3
2014-Jul-22 13:17N 67°40' E 013°00'1317.6
2014-Jul-22 12:33N 67°51' E 013°17'261 6.9
2014-Jul-20 22:33N 70°31' E 022°57'1817.6
2014-Jul-20 21:33N 70°44' E 023°32'  

Dump ship's entire track history